• Join FlightAware (Why Join?)
  • Login
  • US Flag 
05:02PM EDT


 

Airport Tracker/Info


-or-


 

Live Flight TrackerFlight Track Log ✈ SWA499 ✈ 05-May-2013 ✈ KDEN - KMCI

Flight Track Log - Related Links

Times and Time Zones

All times are in EDT time to prevent confusion due to time zone crossing. See the SWA499 flight status page for this flight to view local times or setup timezone preferences in your user account.

Time Position Orientation Groundspeed Altitude Reporting Facility
EDT Latitude Longitude Course Direction KTS MPH feet Rate Location/Type
12:45PM 39.7833 -104.6167 90° East 209 241 7,500  Level Denver TRACON
12:46PM 39.7667 -104.5500 108° East 223 257 10,300 1,500 Climbing Denver TRACON
12:47PM 39.7667 -104.4500 90° East 293 337 10,400 540 Climbing Denver TRACON
12:48PM 39.7672 -104.4203 89° East 302 348 11,000 2,700 Climbing Denver Center
12:49PM 39.7669 -104.2844 90° East 350 403 14,200 2,760 Climbing Denver Center
12:50PM 39.7661 -104.1867 91° East 352 405 16,800 2,760 Climbing Denver Center
12:51PM 39.7500 -103.8073 90° East  Level FlightAware Approximate
12:51PM 39.7661 -104.0186 90° East 378 435 20,000  Level Denver Center
12:52PM 39.7578 -103.8642 94° East 402 463 22,800 2,340 Climbing Denver Center
12:53PM 39.7392 -103.7161 99° East 399 459 24,900 1,920 Climbing Denver Center
12:54PM 39.7281 -103.5586 95° East 427 491 26,900 1,860 Climbing Denver Center
12:55PM 39.7136 -103.3956 97° East 446 513 28,800 1,560 Climbing Denver Center
12:56PM 39.7008 -103.2281 96° East 460 529 30,200 1,140 Climbing Denver Center
12:57PM 39.6864 -103.0536 96° East 480 552 31,200 1,080 Climbing Denver Center
12:58PM 39.6739 -102.9022 96° East 497 572 32,500 1,740 Climbing Denver Center
12:59PM 39.6544 -102.6633 96° East 502 578 34,800 1,680 Climbing Denver Center
01:00PM 39.6386 -102.4947 97° East 495 570 36,400 960 Climbing Denver Center
01:01PM 39.6194 -102.2742 96° East 484 557 37,000 240 Climbing Denver Center
01:02PM 39.6053 -102.1103 96° East 479 551 37,000  Level Denver Center
01:03PM 39.5878 -101.9194 97° East 478 550 37,000  Level Denver Center
01:04PM 39.5731 -101.7567 97° East 478 550 37,000  Level Denver Center
01:05PM 39.5556 -101.5664 97° East 479 551 37,000  Level Denver Center
01:06PM 39.5403 -101.4042 97° East 476 548 37,000  Level Denver Center
01:07PM 39.5214 -101.2125 97° East 481 554 37,000  Level Denver Center
01:08PM 39.5056 -101.0478 97° East 484 557 37,000  Level Denver Center
01:09PM 39.4864 -100.8561 97° East 485 558 37,000  Level Denver Center
01:11PM 39.4692 -100.6914 98° East 485 558 37,000  Level Denver Center
01:12PM 39.4506 -100.4989 97° East 483 556 37,000  Level Denver Center
01:13PM 39.4269 -100.2806 98° East 483 556 37,000  Level Denver Center
01:14PM 39.4092 -100.1172 98° East 482 555 37,000  Level Denver Center
01:15PM 39.3886 -99.9278 98° East 478 550 37,000  Level Denver Center
01:16PM 39.3708 -99.7661 98° East 476 548 37,000  Level Denver Center
01:17PM 39.3500 -99.5769 98° East 476 548 37,000  Level Denver Center
01:18PM 39.3319 -99.4167 98° East 474 545 37,000  Level Denver Center
01:19PM 39.3092 -99.2308 99° East 470 541 37,000  Level Denver Center
01:20PM 39.2917 -99.0719 98° East 468 539 37,000  Level Denver Center
01:21PM 39.2697 -98.8861 99° East 472 543 37,000  Level Denver Center
01:22PM 39.2506 -98.7211 98° East 468 539 37,000 -180 Level Denver Center
01:23PM 39.2306 -98.5556 99° East 468 539 36,700 -660 Descending Denver Center
01:24PM 39.2106 -98.3894 99° East 470 541 35,700 -960 Descending Denver Center
01:25PM 39.2019 -98.3125 98° East 475 547 35,300 -480 Descending Kansas City Center
01:26PM 39.1808 -98.1436 99° East 477 549 35,000 -180 Descending Kansas City Center
01:27PM 39.1597 -97.9739 99° East 477 549 35,000  Level Kansas City Center
01:28PM 39.1369 -97.8022 100° East 474 545 35,000  Level Kansas City Center
01:29PM 39.1131 -97.6186 99° East 466 536 35,000  Level Kansas City Center
01:30PM 39.0928 -97.4644 100° East 458 527 35,000  Level Kansas City Center
01:31PM 39.0689 -97.2828 100° East 459 528 35,000  Level Kansas City Center
01:32PM 39.0478 -97.1300 100° East 456 525 35,000  Level Kansas City Center
01:33PM 39.0267 -96.9533 99° East 449 517 35,000 -960 Level Kansas City Center
01:34PM 39.0058 -96.8028 100° East 448 516 33,100 -2,400 Descending Kansas City Center
01:35PM 38.9808 -96.6275 100° East 446 513 30,100 -2,400 Descending Kansas City Center
01:36PM 38.9628 -96.4975 100° East 439 505 28,200 -2,220 Descending Kansas City Center
01:37PM 38.9375 -96.3186 100° East 423 487 25,600 -2,280 Descending Kansas City Center
01:38PM 38.9167 -96.1822 101° East 413 475 23,600 -2,040 Descending Kansas City Center
01:39PM 38.8936 -96.0283 101° East 398 458 21,400 -1,980 Descending Kansas City Center
01:40PM 38.8761 -95.9017 100° East 381 438 19,500 -1,920 Descending Kansas City Center
01:41PM 38.8547 -95.7553 101° East 376 433 17,500 -1,980 Descending Kansas City Center
01:42PM 38.8375 -95.6336 100° East 365 420 15,500 -2,160 Descending Kansas City Center
01:43PM 38.8164 -95.4953 101° East 356 410 13,100 -1,740 Descending Kansas City Center
01:44PM 38.8269 -95.3897 83° East 331 381 12,000 -1,140 Descending Kansas City Center
01:45PM 38.8906 -95.2994 48° Northeast 301 346 10,800 -1,260 Descending Kansas City Center
01:46PM 38.9308 -95.2244 55° Northeast 270 311 9,400 -1,740 Descending Kansas City Center
01:47PM 38.9664 -95.1281 65° Northeast 267 307 7,300 -1,680 Descending Kansas City Center
01:48PM 38.9969 -95.0489 64° Northeast 259 298 6,000 -1,260 Descending Kansas City Center
01:49PM 39.0278 -94.9642 65° Northeast 238 274 4,800 -1,020 Descending Kansas City Center
01:50PM 39.0544 -94.8911 65° Northeast 236 272 4,000 -420 Descending Kansas City Center
01:51PM 39.0892 -94.8139 60° Northeast 223 257 4,000 -180 Level Kansas City Center
01:53PM 39.1344 -94.7758 33° Northeast 203 234 3,700 -540 Descending Kansas City Center
01:54PM 39.1881 -94.7606 12° North 177 204 3,000 -660 Descending Kansas City Center
01:55PM 39.2278 -94.7486 13° North 156 180 2,400 -720 Descending Kansas City Center
01:56PM 39.2675 -94.7372 13° North 134 154 1,600 -720 Descending Kansas City Center
01:57PM 39.2947 -94.7286 14° North 128 147 1,000 -600 Descending Kansas City Center